sensor_id;sensor_type;location;lat;lon;timestamp;pressure;altitude;pressure_sealevel;temperature;humidity
46778;BME280;32536;47.128;8.746;2023-03-23T00:02:25;91291.25;;;13.17;47.05
46778;BME280;32536;47.128;8.746;2023-03-23T00:04:52;91280.50;;;13.17;47.28
46778;BME280;32536;47.128;8.746;2023-03-23T00:07:20;91295.13;;;13.16;47.79
46778;BME280;32536;47.128;8.746;2023-03-23T00:09:54;91288.88;;;13.19;47.54
46778;BME280;32536;47.128;8.746;2023-03-23T00:12:25;91289.63;;;13.20;47.22
46778;BME280;32536;47.128;8.746;2023-03-23T00:15:00;91286.72;;;13.14;47.07
46778;BME280;32536;47.128;8.746;2023-03-23T00:17:32;91288.53;;;13.04;47.54
46778;BME280;32536;47.128;8.746;2023-03-23T00:19:59;91283.69;;;12.99;47.61
46778;BME280;32536;47.128;8.746;2023-03-23T00:22:28;91284.22;;;12.94;47.57
46778;BME280;32536;47.128;8.746;2023-03-23T00:24:54;91283.56;;;12.90;47.52
46778;BME280;32536;47.128;8.746;2023-03-23T00:27:22;91274.31;;;12.91;47.76
46778;BME280;32536;47.128;8.746;2023-03-23T00:29:50;91285.81;;;12.91;47.48
46778;BME280;32536;47.128;8.746;2023-03-23T00:32:21;91285.81;;;12.91;47.32
46778;BME280;32536;47.128;8.746;2023-03-23T00:34:53;91285.81;;;12.91;47.34
46778;BME280;32536;47.128;8.746;2023-03-23T00:37:20;91279.69;;;12.91;47.59
46778;BME280;32536;47.128;8.746;2023-03-23T00:40:03;91278.72;;;12.85;47.38
46778;BME280;32536;47.128;8.746;2023-03-23T00:42:35;91281.28;;;12.88;47.43
46778;BME280;32536;47.128;8.746;2023-03-23T00:45:04;91284.97;;;12.94;47.46
46778;BME280;32536;47.128;8.746;2023-03-23T00:47:37;91272.16;;;12.98;47.37
46778;BME280;32536;47.128;8.746;2023-03-23T00:50:04;91275.63;;;12.99;47.64
46778;BME280;32536;47.128;8.746;2023-03-23T00:52:31;91270.25;;;12.99;47.31
46778;BME280;32536;47.128;8.746;2023-03-23T00:54:58;91281.09;;;12.95;47.38
46778;BME280;32536;47.128;8.746;2023-03-23T00:57:25;91282.38;;;12.91;47.93
46778;BME280;32536;47.128;8.746;2023-03-23T00:59:52;91278.28;;;12.86;47.74
46778;BME280;32536;47.128;8.746;2023-03-23T01:02:18;91279.34;;;12.89;47.83
46778;BME280;32536;47.128;8.746;2023-03-23T01:04:45;91274.22;;;12.94;48.06
46778;BME280;32536;47.128;8.746;2023-03-23T01:07:12;91273.78;;;12.96;47.70
46778;BME280;32536;47.128;8.746;2023-03-23T01:09:39;91275.28;;;12.97;47.68
46778;BME280;32536;47.128;8.746;2023-03-23T01:12:11;91268.00;;;12.97;47.58
46778;BME280;32536;47.128;8.746;2023-03-23T01:14:38;91275.72;;;12.95;47.61
46778;BME280;32536;47.128;8.746;2023-03-23T01:17:04;91275.38;;;12.93;47.82
46778;BME280;32536;47.128;8.746;2023-03-23T01:19:31;91277.63;;;12.95;47.54
46778;BME280;32536;47.128;8.746;2023-03-23T01:21:58;91268.00;;;12.97;47.46
46778;BME280;32536;47.128;8.746;2023-03-23T01:24:25;91269.91;;;12.97;47.63
46778;BME280;32536;47.128;8.746;2023-03-23T01:26:51;91260.75;;;12.94;47.71
46778;BME280;32536;47.128;8.746;2023-03-23T01:29:18;91261.50;;;12.95;47.84
46778;BME280;32536;47.128;8.746;2023-03-23T01:31:45;91259.50;;;12.99;47.64
46778;BME280;32536;47.128;8.746;2023-03-23T01:34:11;91262.50;;;13.01;47.59
46778;BME280;32536;47.128;8.746;2023-03-23T01:36:38;91260.13;;;13.03;47.49
46778;BME280;32536;47.128;8.746;2023-03-23T01:39:05;91254.75;;;13.03;47.59
46778;BME280;32536;47.128;8.746;2023-03-23T01:41:33;91259.06;;;13.01;47.36
46778;BME280;32536;47.128;8.746;2023-03-23T01:46:44;91259.34;;;12.90;47.93
46778;BME280;32536;47.128;8.746;2023-03-23T01:51:53;91269.47;;;12.86;47.48
46778;BME280;32536;47.128;8.746;2023-03-23T01:54:23;91259.34;;;12.90;47.80
46778;BME280;32536;47.128;8.746;2023-03-23T01:56:54;91264.72;;;12.90;47.44
46778;BME280;32536;47.128;8.746;2023-03-23T01:59:26;91259.69;;;12.92;47.70
46778;BME280;32536;47.128;8.746;2023-03-23T02:01:55;91264.53;;;12.97;47.62
46778;BME280;32536;47.128;8.746;2023-03-23T02:04:23;91266.78;;;12.98;47.46
46778;BME280;32536;47.128;8.746;2023-03-23T02:06:53;91270.97;;;13.00;47.17
46778;BME280;32536;47.128;8.746;2023-03-23T02:09:22;91270.69;;;12.97;47.53
46778;BME280;32536;47.128;8.746;2023-03-23T02:11:52;91272.25;;;12.95;47.39
46778;BME280;32536;47.128;8.746;2023-03-23T02:14:21;91276.16;;;12.94;47.46
46778;BME280;32536;47.128;8.746;2023-03-23T02:23:59;91271.53;;;12.94;47.61
46778;BME280;32536;47.128;8.746;2023-03-23T02:26:18;91279.16;;;12.96;47.77
46778;BME280;32536;47.128;8.746;2023-03-23T02:29:15;91284.22;;;12.94;47.59
46778;BME280;32536;47.128;8.746;2023-03-23T02:35:00;91272.59;;;12.97;47.55
46778;BME280;32536;47.128;8.746;2023-03-23T02:37:33;91275.28;;;12.97;47.96
46778;BME280;32536;47.128;8.746;2023-03-23T02:40:15;91268.84;;;12.94;47.93
46778;BME280;32536;47.128;8.746;2023-03-23T02:43:07;91274.22;;;12.94;48.17
46778;BME280;32536;47.128;8.746;2023-03-23T02:45:38;91267.31;;;12.93;48.21
46778;BME280;32536;47.128;8.746;2023-03-23T02:48:06;91267.22;;;12.97;47.87
46778;BME280;32536;47.128;8.746;2023-03-23T02:50:34;91263.25;;;13.02;48.09
46778;BME280;32536;47.128;8.746;2023-03-23T02:53:07;91266.28;;;13.04;47.76
46778;BME280;32536;47.128;8.746;2023-03-23T02:55:37;91260.47;;;13.05;48.07
46778;BME280;32536;47.128;8.746;2023-03-23T02:58:09;91258.84;;;13.08;47.97
46778;BME280;32536;47.128;8.746;2023-03-23T03:00:38;91257.34;;;13.07;47.85
46778;BME280;32536;47.128;8.746;2023-03-23T03:03:09;91262.28;;;13.08;47.77
46778;BME280;32536;47.128;8.746;2023-03-23T03:08:59;91267.03;;;13.17;47.40
46778;BME280;32536;47.128;8.746;2023-03-23T03:11:35;91258.63;;;13.15;47.73
46778;BME280;32536;47.128;8.746;2023-03-23T03:14:09;91258.94;;;13.04;47.73
46778;BME280;32536;47.128;8.746;2023-03-23T03:17:00;91252.84;;;13.04;47.50
46778;BME280;32536;47.128;8.746;2023-03-23T03:19:45;91257.25;;;12.97;47.87
46778;BME280;32536;47.128;8.746;2023-03-23T03:22:16;91264.63;;;12.93;48.01
46778;BME280;32536;47.128;8.746;2023-03-23T03:24:47;91258.41;;;12.96;48.05
46778;BME280;32536;47.128;8.746;2023-03-23T03:27:17;91256.81;;;12.99;47.97
46778;BME280;32536;47.128;8.746;2023-03-23T03:29:48;91264.88;;;12.99;48.05
46778;BME280;32536;47.128;8.746;2023-03-23T03:32:22;91243.47;;;12.95;48.22
46778;BME280;32536;47.128;8.746;2023-03-23T03:35:02;91238.63;;;12.90;48.32
46778;BME280;32536;47.128;8.746;2023-03-23T03:37:34;91232.47;;;12.90;48.05
46778;BME280;32536;47.128;8.746;2023-03-23T03:40:15;91238.28;;;12.88;48.08
46778;BME280;32536;47.128;8.746;2023-03-23T03:42:45;91233.97;;;12.91;48.43
46778;BME280;32536;47.128;8.746;2023-03-23T03:45:18;91231.19;;;12.94;48.42
46778;BME280;32536;47.128;8.746;2023-03-23T03:47:45;91232.59;;;12.99;48.31
46778;BME280;32536;47.128;8.746;2023-03-23T03:50:13;91227.22;;;12.99;48.18
46778;BME280;32536;47.128;8.746;2023-03-23T03:52:39;91219.59;;;12.97;48.21
46778;BME280;32536;47.128;8.746;2023-03-23T03:55:08;91214.63;;;12.96;48.27
46778;BME280;32536;47.128;8.746;2023-03-23T03:57:36;91216.56;;;12.95;48.36
46778;BME280;32536;47.128;8.746;2023-03-23T04:00:04;91218.19;;;12.93;48.31
46778;BME280;32536;47.128;8.746;2023-03-23T04:02:44;91217.84;;;12.91;48.61
46778;BME280;32536;47.128;8.746;2023-03-23T04:05:21;91216.25;;;12.93;48.55
46778;BME280;32536;47.128;8.746;2023-03-23T04:07:49;91218.94;;;12.93;48.54
46778;BME280;32536;47.128;8.746;2023-03-23T04:10:18;91213.22;;;12.91;48.29
46778;BME280;32536;47.128;8.746;2023-03-23T04:12:50;91212.81;;;12.93;48.14
46778;BME280;32536;47.128;8.746;2023-03-23T04:15:17;91204.31;;;12.94;47.83
46778;BME280;32536;47.128;8.746;2023-03-23T04:17:43;91204.31;;;12.94;48.01
46778;BME280;32536;47.128;8.746;2023-03-23T04:20:11;91195.50;;;12.94;47.97
46778;BME280;32536;47.128;8.746;2023-03-23T04:22:47;91210.88;;;12.93;48.00
46778;BME280;32536;47.128;8.746;2023-03-23T04:25:19;91205.06;;;12.95;48.20
46778;BME280;32536;47.128;8.746;2023-03-23T04:27:50;91205.81;;;12.95;48.47
46778;BME280;32536;47.128;8.746;2023-03-23T04:30:21;91198.19;;;12.94;48.21
46778;BME280;32536;47.128;8.746;2023-03-23T04:32:51;91194.41;;;12.91;48.26
46778;BME280;32536;47.128;8.746;2023-03-23T04:35:23;91196.34;;;12.91;48.37
46778;BME280;32536;47.128;8.746;2023-03-23T04:37:52;91191.59;;;12.95;48.55
46778;BME280;32536;47.128;8.746;2023-03-23T04:40:20;91191.50;;;12.98;48.65
46778;BME280;32536;47.128;8.746;2023-03-23T04:42:48;91194.09;;;13.02;48.43
46778;BME280;32536;47.128;8.746;2023-03-23T04:45:21;91197.22;;;13.01;48.61
46778;BME280;32536;47.128;8.746;2023-03-23T04:47:51;91196.47;;;13.00;48.62
46778;BME280;32536;47.128;8.746;2023-03-23T04:50:32;91199.47;;;13.02;48.42
46778;BME280;32536;47.128;8.746;2023-03-23T04:53:02;91202.38;;;13.08;48.63
46778;BME280;32536;47.128;8.746;2023-03-23T04:55:31;91197.63;;;13.12;48.70
46778;BME280;32536;47.128;8.746;2023-03-23T04:58:05;91198.84;;;13.11;48.38
46778;BME280;32536;47.128;8.746;2023-03-23T05:00:34;91188.19;;;13.07;48.61
46778;BME280;32536;47.128;8.746;2023-03-23T05:03:02;91187.22;;;13.01;48.69
46778;BME280;32536;47.128;8.746;2023-03-23T05:05:29;91188.41;;;13.00;48.67
46778;BME280;32536;47.128;8.746;2023-03-23T05:07:56;91191.41;;;13.02;48.48
46778;BME280;32536;47.128;8.746;2023-03-23T05:10:23;91189.66;;;13.08;48.55
46778;BME280;32536;47.128;8.746;2023-03-23T05:12:50;91190.22;;;13.16;48.73
46778;BME280;32536;47.128;8.746;2023-03-23T05:15:19;91194.63;;;13.23;48.58
46778;BME280;32536;47.128;8.746;2023-03-23T05:17:46;91183.88;;;13.23;48.51
46778;BME280;32536;47.128;8.746;2023-03-23T05:20:16;91175.50;;;13.21;48.43
46778;BME280;32536;47.128;8.746;2023-03-23T05:22:47;91177.09;;;13.18;48.62
46778;BME280;32536;47.128;8.746;2023-03-23T05:25:16;91194.63;;;13.23;48.73
46778;BME280;32536;47.128;8.746;2023-03-23T05:27:46;91193.34;;;13.27;48.19
46778;BME280;32536;47.128;8.746;2023-03-23T05:30:19;91204.41;;;13.29;48.08
46778;BME280;32536;47.128;8.746;2023-03-23T05:32:48;91196.66;;;13.32;48.12
46778;BME280;32536;47.128;8.746;2023-03-23T05:35:18;91204.63;;;13.35;48.21
46778;BME280;32536;47.128;8.746;2023-03-23T05:37:46;91194.19;;;13.37;48.16
46778;BME280;32536;47.128;8.746;2023-03-23T05:40:22;91199.56;;;13.37;47.55
46778;BME280;32536;47.128;8.746;2023-03-23T05:42:51;91189.47;;;13.41;48.11
46778;BME280;32536;47.128;8.746;2023-03-23T05:45:18;91196.34;;;13.42;48.48
46778;BME280;32536;47.128;8.746;2023-03-23T05:47:47;91196.78;;;13.41;47.66
46778;BME280;32536;47.128;8.746;2023-03-23T05:50:13;91194.84;;;13.41;47.80
46778;BME280;32536;47.128;8.746;2023-03-23T05:52:40;91196.47;;;13.39;47.71
46778;BME280;32536;47.128;8.746;2023-03-23T05:55:08;91207.75;;;13.34;47.67
46778;BME280;32536;47.128;8.746;2023-03-23T05:57:35;91201.63;;;13.33;47.82
46778;BME280;32536;47.128;8.746;2023-03-23T06:00:03;91199.22;;;13.35;47.84
46778;BME280;32536;47.128;8.746;2023-03-23T06:02:45;91199.22;;;13.35;47.23
46778;BME280;32536;47.128;8.746;2023-03-23T06:05:14;91199.66;;;13.34;47.44
46778;BME280;32536;47.128;8.746;2023-03-23T06:07:42;91201.63;;;13.33;47.91
46778;BME280;32536;47.128;8.746;2023-03-23T06:10:09;91202.38;;;13.34;48.02
46778;BME280;32536;47.128;8.746;2023-03-23T06:12:38;91205.06;;;13.34;48.10
46778;BME280;32536;47.128;8.746;2023-03-23T06:15:07;91197.66;;;13.38;48.15
46778;BME280;32536;47.128;8.746;2023-03-23T06:17:34;91211.63;;;13.45;48.16
46778;BME280;32536;47.128;8.746;2023-03-23T06:20:03;91209.47;;;13.53;48.18
46778;BME280;32536;47.128;8.746;2023-03-23T06:22:39;91210.13;;;13.57;47.87
46778;BME280;32536;47.128;8.746;2023-03-23T06:25:07;91213.22;;;13.56;48.39
46778;BME280;32536;47.128;8.746;2023-03-23T06:27:35;91210.66;;;13.52;48.38
46778;BME280;32536;47.128;8.746;2023-03-23T06:30:04;91213.78;;;13.51;48.30
46778;BME280;32536;47.128;8.746;2023-03-23T06:32:32;91211.09;;;13.51;48.39
46778;BME280;32536;47.128;8.746;2023-03-23T06:34:59;91214.09;;;13.53;48.48
46778;BME280;32536;47.128;8.746;2023-03-23T06:37:26;91216.38;;;13.54;48.48
46778;BME280;32536;47.128;8.746;2023-03-23T06:40:23;91215.50;;;13.57;47.98
46778;BME280;32536;47.128;8.746;2023-03-23T06:42:49;91222.25;;;13.62;48.37
46778;BME280;32536;47.128;8.746;2023-03-23T06:45:16;91216.75;;;13.66;48.19
46778;BME280;32536;47.128;8.746;2023-03-23T06:47:46;91220.97;;;13.67;48.12
46778;BME280;32536;47.128;8.746;2023-03-23T06:50:15;91213.53;;;13.71;48.21
46778;BME280;32536;47.128;8.746;2023-03-23T06:52:50;91212.66;;;13.74;47.91
46778;BME280;32536;47.128;8.746;2023-03-23T06:55:18;91223.94;;;13.82;48.09
46778;BME280;32536;47.128;8.746;2023-03-23T06:57:44;91220.41;;;13.85;47.95
46778;BME280;32536;47.128;8.746;2023-03-23T07:00:13;91208.31;;;13.89;48.04
46778;BME280;32536;47.128;8.746;2023-03-23T07:02:41;91212.09;;;13.92;47.80
46778;BME280;32536;47.128;8.746;2023-03-23T07:05:09;91210.56;;;13.91;47.80
46778;BME280;32536;47.128;8.746;2023-03-23T07:07:37;91217.47;;;13.92;47.53
46778;BME280;32536;47.128;8.746;2023-03-23T07:10:07;91212.09;;;13.92;47.72
46778;BME280;32536;47.128;8.746;2023-03-23T07:12:36;91212.41;;;13.94;47.78
46778;BME280;32536;47.128;8.746;2023-03-23T07:15:03;91214.78;;;13.92;47.72
46778;BME280;32536;47.128;8.746;2023-03-23T07:17:31;91215.09;;;13.94;47.91
46778;BME280;32536;47.128;8.746;2023-03-23T07:19:58;91219.94;;;13.99;47.97
46778;BME280;32536;47.128;8.746;2023-03-23T07:22:24;91216.34;;;14.02;47.97
46778;BME280;32536;47.128;8.746;2023-03-23T07:24:51;91220.44;;;14.07;47.97
46778;BME280;32536;47.128;8.746;2023-03-23T07:27:18;91221.09;;;14.11;48.04
46778;BME280;32536;47.128;8.746;2023-03-23T07:29:45;91224.41;;;14.15;47.99
46778;BME280;32536;47.128;8.746;2023-03-23T07:32:11;91232.03;;;14.17;48.10
46778;BME280;32536;47.128;8.746;2023-03-23T07:34:39;91232.56;;;14.24;47.91
46778;BME280;32536;47.128;8.746;2023-03-23T07:37:07;91235.13;;;14.28;47.85
46778;BME280;32536;47.128;8.746;2023-03-23T07:39:34;91231.44;;;14.35;47.89
46778;BME280;32536;47.128;8.746;2023-03-23T07:42:01;91231.94;;;14.43;47.86
46778;BME280;32536;47.128;8.746;2023-03-23T07:44:28;91236.78;;;14.48;47.70
46778;BME280;32536;47.128;8.746;2023-03-23T07:46:55;91236.81;;;14.57;47.86
46778;BME280;32536;47.128;8.746;2023-03-23T07:49:22;91232.72;;;14.65;47.71
46778;BME280;32536;47.128;8.746;2023-03-23T07:51:48;91235.16;;;14.72;47.58
46778;BME280;32536;47.128;8.746;2023-03-23T07:54:15;91243.88;;;14.77;47.84
46778;BME280;32536;47.128;8.746;2023-03-23T07:56:42;91240.31;;;14.80;47.53
46778;BME280;32536;47.128;8.746;2023-03-23T07:59:11;91245.13;;;14.85;47.73
46778;BME280;32536;47.128;8.746;2023-03-23T08:01:39;91238.72;;;14.92;47.72
46778;BME280;32536;47.128;8.746;2023-03-23T08:04:05;91253.56;;;14.96;47.73
46778;BME280;32536;47.128;8.746;2023-03-23T08:06:33;91249.09;;;15.02;47.84
46778;BME280;32536;47.128;8.746;2023-03-23T08:09:01;91253.63;;;15.05;47.80
46778;BME280;32536;47.128;8.746;2023-03-23T08:11:34;91247.66;;;15.11;47.76
46778;BME280;32536;47.128;8.746;2023-03-23T08:14:01;91246.34;;;15.15;47.56
46778;BME280;32536;47.128;8.746;2023-03-23T08:16:28;91249.97;;;15.21;47.54
46778;BME280;32536;47.128;8.746;2023-03-23T08:18:55;91251.34;;;15.26;47.33
46778;BME280;32536;47.128;8.746;2023-03-23T08:21:22;91248.63;;;15.26;47.58
46778;BME280;32536;47.128;8.746;2023-03-23T08:23:49;91258.84;;;15.31;47.73
46778;BME280;32536;47.128;8.746;2023-03-23T08:26:16;91244.91;;;15.33;47.77
46778;BME280;32536;47.128;8.746;2023-03-23T08:28:43;91252.72;;;15.31;47.86
46778;BME280;32536;47.128;8.746;2023-03-23T08:31:11;91258.53;;;15.29;47.95
46778;BME280;32536;47.128;8.746;2023-03-23T08:33:40;91260.50;;;15.29;47.91
46778;BME280;32536;47.128;8.746;2023-03-23T08:36:08;91268.00;;;15.34;47.83
46778;BME280;32536;47.128;8.746;2023-03-23T08:38:35;91269.50;;;15.35;47.95
46778;BME280;32536;47.128;8.746;2023-03-23T08:41:05;91268.91;;;15.31;47.42
46778;BME280;32536;47.128;8.746;2023-03-23T08:43:33;91277.72;;;15.31;47.47
46778;BME280;32536;47.128;8.746;2023-03-23T08:46:01;91278.19;;;15.30;47.70
46778;BME280;32536;47.128;8.746;2023-03-23T08:48:32;91273.66;;;15.27;47.74
46778;BME280;32536;47.128;8.746;2023-03-23T08:51:02;91282.53;;;15.27;47.71
46778;BME280;32536;47.128;8.746;2023-03-23T08:53:29;91282.53;;;15.27;47.68
46778;BME280;32536;47.128;8.746;2023-03-23T08:56:03;91282.81;;;15.29;47.74
46778;BME280;32536;47.128;8.746;2023-03-23T08:58:31;91286.44;;;15.35;47.94
46778;BME280;32536;47.128;8.746;2023-03-23T09:00:59;91289.31;;;15.41;47.67
46778;BME280;32536;47.128;8.746;2023-03-23T09:03:26;91290.69;;;15.46;47.63
46778;BME280;32536;47.128;8.746;2023-03-23T09:05:57;91297.59;;;15.47;47.86
46778;BME280;32536;47.128;8.746;2023-03-23T09:08:26;91300.91;;;15.51;47.55
46778;BME280;32536;47.128;8.746;2023-03-23T09:11:02;91306.19;;;15.55;46.99
46778;BME280;32536;47.128;8.746;2023-03-23T09:13:34;91299.78;;;15.61;47.56
46778;BME280;32536;47.128;8.746;2023-03-23T09:16:02;91305.63;;;15.69;47.38
46778;BME280;32536;47.128;8.746;2023-03-23T09:18:30;91311.66;;;15.73;46.48
46778;BME280;32536;47.128;8.746;2023-03-23T09:20:58;91311.97;;;15.75;46.12
46778;BME280;32536;47.128;8.746;2023-03-23T09:23:26;91318.88;;;15.76;45.33
46778;BME280;32536;47.128;8.746;2023-03-23T09:25:53;91323.38;;;15.79;46.09
46778;BME280;32536;47.128;8.746;2023-03-23T09:28:20;91322.84;;;15.84;45.38
46778;BME280;32536;47.128;8.746;2023-03-23T09:30:47;91332.88;;;15.84;45.26
46778;BME280;32536;47.128;8.746;2023-03-23T09:33:15;91327.03;;;15.86;45.45
46778;BME280;32536;47.128;8.746;2023-03-23T09:35:42;91332.16;;;15.93;46.02
46778;BME280;32536;47.128;8.746;2023-03-23T09:38:09;91332.63;;;16.00;46.10
46778;BME280;32536;47.128;8.746;2023-03-23T09:49:37;91316.47;;;16.19;45.01
46778;BME280;32536;47.128;8.746;2023-03-23T09:52:08;91320.22;;;16.22;44.52
46778;BME280;32536;47.128;8.746;2023-03-23T09:54:46;91317.38;;;16.25;43.23
46778;BME280;32536;47.128;8.746;2023-03-23T09:57:30;91327.72;;;16.27;43.41
46778;BME280;32536;47.128;8.746;2023-03-23T10:00:32;91330.59;;;16.32;44.42
46778;BME280;32536;47.128;8.746;2023-03-23T10:03:19;91326.41;;;16.41;45.06
46778;BME280;32536;47.128;8.746;2023-03-23T10:05:57;91326.00;;;16.52;45.93
46778;BME280;32536;47.128;8.746;2023-03-23T10:08:27;91329.88;;;16.60;45.59
46778;BME280;32536;47.128;8.746;2023-03-23T10:11:10;91323.59;;;16.63;43.95
46778;BME280;32536;47.128;8.746;2023-03-23T10:22:33;91321.97;;;16.93;45.69
46778;BME280;32536;47.128;8.746;2023-03-23T10:25:15;91332.78;;;16.93;44.20
46778;BME280;32536;47.128;8.746;2023-03-23T10:27:59;91334.13;;;16.98;42.99
46778;BME280;32536;47.128;8.746;2023-03-23T10:30:40;91339.69;;;17.04;43.35
46778;BME280;32536;47.128;8.746;2023-03-23T10:33:40;91327.03;;;17.10;44.19
46778;BME280;32536;47.128;8.746;2023-03-23T10:36:14;91321.03;;;17.15;44.50
46778;BME280;32536;47.128;8.746;2023-03-23T10:39:01;91323.44;;;17.22;43.95
46778;BME280;32536;47.128;8.746;2023-03-23T10:41:31;91320.22;;;17.33;45.32
46778;BME280;32536;47.128;8.746;2023-03-23T10:44:16;91317.69;;;17.39;43.35
46778;BME280;32536;47.128;8.746;2023-03-23T10:46:58;91317.19;;;17.50;44.78
46778;BME280;32536;47.128;8.746;2023-03-23T10:49:32;91322.28;;;17.57;44.35
46778;BME280;32536;47.128;8.746;2023-03-23T10:54:46;91307.97;;;17.66;43.64
46778;BME280;32536;47.128;8.746;2023-03-23T10:57:28;91315.78;;;17.73;43.16
46778;BME280;32536;47.128;8.746;2023-03-23T11:02:47;91310.75;;;17.81;42.60
46778;BME280;32536;47.128;8.746;2023-03-23T11:05:40;91312.72;;;17.80;43.41
46778;BME280;32536;47.128;8.746;2023-03-23T11:08:23;91310.66;;;17.75;40.05
46778;BME280;32536;47.128;8.746;2023-03-23T11:11:10;91314.09;;;17.75;40.22
46778;BME280;32536;47.128;8.746;2023-03-23T11:13:43;91320.09;;;17.80;42.72
46778;BME280;32536;47.128;8.746;2023-03-23T11:16:25;91310.31;;;17.82;40.26
46778;BME280;32536;47.128;8.746;2023-03-23T11:18:54;91309.69;;;17.87;43.03
46778;BME280;32536;47.128;8.746;2023-03-23T11:21:23;91306.97;;;17.87;42.11
46778;BME280;32536;47.128;8.746;2023-03-23T11:23:55;91308.94;;;17.87;38.34
46778;BME280;32536;47.128;8.746;2023-03-23T11:26:25;91308.03;;;17.90;42.02
46778;BME280;32536;47.128;8.746;2023-03-23T11:29:03;91309.22;;;17.89;35.18
46778;BME280;32536;47.128;8.746;2023-03-23T11:31:43;91309.06;;;17.92;39.57
46778;BME280;32536;47.128;8.746;2023-03-23T11:34:21;91308.75;;;17.90;36.13
46778;BME280;32536;47.128;8.746;2023-03-23T11:36:53;91303.03;;;17.98;41.52
46778;BME280;32536;47.128;8.746;2023-03-23T11:39:28;91296.41;;;17.99;38.47
46778;BME280;32536;47.128;8.746;2023-03-23T11:42:11;91290.81;;;18.02;40.73
46778;BME280;32536;47.128;8.746;2023-03-23T11:44:43;91293.38;;;18.06;41.37
46778;BME280;32536;47.128;8.746;2023-03-23T11:47:22;91293.03;;;18.13;41.15
46778;BME280;32536;47.128;8.746;2023-03-23T11:53:23;91285.44;;;18.27;38.45
46778;BME280;32536;47.128;8.746;2023-03-23T11:56:13;91280.28;;;18.29;40.81
46778;BME280;32536;47.128;8.746;2023-03-23T11:58:44;91276.66;;;18.32;42.16
46778;BME280;32536;47.128;8.746;2023-03-23T12:01:15;91271.53;;;18.34;41.55
46778;BME280;32536;47.128;8.746;2023-03-23T12:15:58;91254.28;;;18.61;42.18
46778;BME280;32536;47.128;8.746;2023-03-23T12:19:05;91254.75;;;18.60;41.69
46778;BME280;32536;47.128;8.746;2023-03-23T12:30:00;91258.84;;;18.55;41.94
46778;BME280;32536;47.128;8.746;2023-03-23T12:32:46;91252.69;;;18.54;42.24
46778;BME280;32536;47.128;8.746;2023-03-23T12:35:34;91254.09;;;18.50;41.36
46778;BME280;32536;47.128;8.746;2023-03-23T12:38:23;91247.91;;;18.49;42.75
46778;BME280;32536;47.128;8.746;2023-03-23T12:41:39;91256.97;;;18.46;42.08
46778;BME280;32536;47.128;8.746;2023-03-23T12:44:12;91250.50;;;18.44;42.52
46778;BME280;32536;47.128;8.746;2023-03-23T12:50:28;91250.13;;;18.36;42.32
46778;BME280;32536;47.128;8.746;2023-03-23T12:53:27;91249.66;;;18.37;38.63
46778;BME280;32536;47.128;8.746;2023-03-23T12:56:20;91247.06;;;18.43;42.13
46778;BME280;32536;47.128;8.746;2023-03-23T12:58:49;91256.63;;;18.53;40.83
46778;BME280;32536;47.128;8.746;2023-03-23T13:01:30;91253.16;;;18.53;40.11
46778;BME280;32536;47.128;8.746;2023-03-23T13:04:15;91261.88;;;18.57;41.54
46778;BME280;32536;47.128;8.746;2023-03-23T13:06:48;91258.97;;;18.61;42.33
46778;BME280;32536;47.128;8.746;2023-03-23T13:09:39;91257.75;;;18.62;41.27
46778;BME280;32536;47.128;8.746;2023-03-23T13:12:14;91257.13;;;18.67;42.71
46778;BME280;32536;47.128;8.746;2023-03-23T13:15:03;91245.53;;;18.66;41.50
46778;BME280;32536;47.128;8.746;2023-03-23T13:18:19;91250.00;;;18.69;41.97
46778;BME280;32536;47.128;8.746;2023-03-23T13:21:31;91249.09;;;18.72;41.90
46778;BME280;32536;47.128;8.746;2023-03-23T13:24:04;91249.94;;;18.79;41.86
46778;BME280;32536;47.128;8.746;2023-03-23T13:26:38;91249.00;;;18.82;41.40
46778;BME280;32536;47.128;8.746;2023-03-23T13:29:20;91247.22;;;18.79;39.47
46778;BME280;32536;47.128;8.746;2023-03-23T13:31:50;91236.19;;;18.82;42.03
46778;BME280;32536;47.128;8.746;2023-03-23T13:34:31;91242.25;;;18.77;37.18
46778;BME280;32536;47.128;8.746;2023-03-23T13:37:21;91251.22;;;18.83;40.94
46778;BME280;32536;47.128;8.746;2023-03-23T13:39:52;91243.66;;;18.87;40.66
46778;BME280;32536;47.128;8.746;2023-03-23T13:43:00;91229.34;;;18.87;40.47
46778;BME280;32536;47.128;8.746;2023-03-23T13:48:16;91229.47;;;18.93;40.19
46778;BME280;32536;47.128;8.746;2023-03-23T13:53:31;91226.38;;;19.00;38.32
46778;BME280;32536;47.128;8.746;2023-03-23T13:56:15;91234.53;;;19.00;40.02
46778;BME280;32536;47.128;8.746;2023-03-23T13:58:48;91234.34;;;19.03;41.79
46778;BME280;32536;47.128;8.746;2023-03-23T14:01:36;91229.22;;;19.06;40.16
46778;BME280;32536;47.128;8.746;2023-03-23T14:04:15;91224.22;;;19.04;38.71
46778;BME280;32536;47.128;8.746;2023-03-23T14:06:46;91233.31;;;19.01;40.79
46778;BME280;32536;47.128;8.746;2023-03-23T14:09:18;91235.28;;;19.00;40.44
46778;BME280;32536;47.128;8.746;2023-03-23T14:12:04;91228.38;;;18.99;38.58
46778;BME280;32536;47.128;8.746;2023-03-23T14:14:42;91234.53;;;19.00;39.63
46778;BME280;32536;47.128;8.746;2023-03-23T14:17:17;91229.47;;;18.93;37.69
46778;BME280;32536;47.128;8.746;2023-03-23T14:19:50;91229.47;;;18.93;40.24
46778;BME280;32536;47.128;8.746;2023-03-23T14:22:27;91229.06;;;18.85;35.96
46778;BME280;32536;47.128;8.746;2023-03-23T14:25:10;91229.72;;;18.80;39.15
46778;BME280;32536;47.128;8.746;2023-03-23T14:27:42;91236.38;;;18.79;40.89
46778;BME280;32536;47.128;8.746;2023-03-23T14:30:16;91237.56;;;18.78;40.57
46778;BME280;32536;47.128;8.746;2023-03-23T14:32:45;91241.97;;;18.75;40.75
46778;BME280;32536;47.128;8.746;2023-03-23T14:35:27;91251.97;;;18.69;39.92
46778;BME280;32536;47.128;8.746;2023-03-23T14:37:57;91251.97;;;18.69;41.36
46778;BME280;32536;47.128;8.746;2023-03-23T14:40:52;91257.59;;;18.65;39.83
46778;BME280;32536;47.128;8.746;2023-03-23T14:43:21;91265.78;;;18.56;39.72
46778;BME280;32536;47.128;8.746;2023-03-23T14:45:52;91265.56;;;18.45;39.41